Startpagina
METAR-TAF:

METAR-TAF

Vliegvelden :

Recife, Pernambuco, Brazilië

Aeroporto Internacional do Recife

breedte: 08-08S, lengte: 034-55W, hoogte: 19 m

Actueel weer

Dit bericht is 53 minuten geleden gemaakt, om 17:00 UTC
Wind 10 kt uit het oosten
Temperatuur 28°C
Vochtigheid 70%
Druk 1010 hPa
Zicht 10 km of meer
Verspreide wolken op 2300 ft
Verspreide wolken op 6000 ft

METAR: SBRF 181700Z 10010KT 9999 SCT023 SCT060 28/22 Q1010

Tijdstip: 14:53 (17:53 UTC)

Verwachting

Dit bericht is 1 uur en het 53 minuten geleden gemaakt, om 16:00 UTC
Verwachting geldig van 18 om 18 UTC tot 19 om 18 UTC
Wind 8 kt uit het oostzuidoosten
Zicht: 8000 m
Verspreide wolken op 2500 ft

TAF: SBRF 181600Z 1818/1918 11008KT 8000 SCT025 TN26/1908Z TX29/1914Z RMK PCH

Waarnemingen en weersverwachtingen van meer dan 4000 vliegvelden (METAR en TAF).

De beschikbare stations zijn de gele en rode punten op de kaart.

Ga met uw muis naar het station om de naam te zien.

Klik dan om waarnemingen en weersverwachtingen te zien.

kaart wijzigen: klik op de groene knoppen met een zwart kruis om in te zoomen, op de groene knop met een streepje om uit te zoomen of op de groene pijlen voor aangrenzende kaarten.


METAR-TAF: